HNLMS Pelikaan — PAKU — position and weather

sailwx.info

Track history (hours):
 
Tides and Currents Weather Stations Pressure Air Temp Water Temp Dewpoint Dewpoint Depression Visibility Wind Speed Wind Dir Waves Ship Positions

HNLMS Pelikaan

Last reported at 2018-Jan-18 09:02 UTC. Time now 2018-Jan-23 19:24 UTC.
Position N 10°20' W 075°31'.

Length 65 m.

Type: Military. MMSI: 244362000.

Date/timePositionNaut miles runAvg speedWind from/ knotsBaromVisibWave heightAir tempDewpointWater temp
2018-Jan-18 09:02N 10°20' W 075°31'0 0.0
2018-Jan-18 08:59N 10°20' W 075°31'0 0.0
2018-Jan-18 08:29N 10°20' W 075°31'0 0.0
2018-Jan-18 07:59N 10°20' W 075°31'0 0.0
2018-Jan-18 07:29N 10°20' W 075°31'0 0.0
2018-Jan-18 06:56N 10°20' W 075°31'0 0.0
2018-Jan-18 06:26N 10°20' W 075°31'0 0.0
2018-Jan-18 05:56N 10°20' W 075°31'0 0.0
2018-Jan-18 05:29N 10°20' W 075°31'0 0.0
2018-Jan-18 04:56N 10°20' W 075°31'0 0.0
2018-Jan-18 04:26N 10°20' W 075°31'0 0.0
2018-Jan-18 03:59N 10°20' W 075°31'0 0.0
2018-Jan-18 03:29N 10°20' W 075°31'0 0.0
2018-Jan-18 02:59N 10°20' W 075°31'0 0.0
2018-Jan-18 02:29N 10°20' W 075°31'0 0.0
2018-Jan-18 01:59N 10°20' W 075°31'0 0.0
2018-Jan-18 01:20N 10°20' W 075°31'0 0.0
2018-Jan-18 00:56N 10°20' W 075°31'0 0.0
2018-Jan-17 23:56N 10°20' W 075°31'  
2018-Jan-12 14:40N 10°24' W 075°32'0 0.0
2018-Jan-12 14:30N 10°24' W 075°32'2 3.3
2018-Jan-12 14:00N 10°23' W 075°32'5 9.9
2018-Jan-12 13:30N 10°19' W 075°36'1 2.6
2018-Jan-12 13:00N 10°19' W 075°37'2 4.9
2018-Jan-12 12:30N 10°19' W 075°39'3 5.7
2018-Jan-12 12:00N 10°20' W 075°42'2 4.7
2018-Jan-12 11:30N 10°21' W 075°44'77 6.9
2018-Jan-12 00:26N 11°18' W 074°52'4 8.6
2018-Jan-11 23:59N 11°19' W 074°48'4 8.7
2018-Jan-11 23:30N 11°21' W 074°44'  
Track history (hours):
 
Tides and Currents Weather Stations Pressure Air Temp Water Temp Dewpoint Dewpoint Depression Visibility Wind Speed Wind Dir Waves Ship Positions

HNLMS Pelikaan

Last reported at 2018-Jan-18 09:02 UTC. Time now 2018-Jan-23 19:24 UTC.
Position N 10°20' W 075°31'.

Length 65 m.

Type: Military. MMSI: 244362000.

Date/timePositionNaut miles runAvg speedWind from/ knotsBaromVisibWave heightAir tempDewpointWater temp
2018-Jan-18 09:02N 10°20' W 075°31'0 0.0
2018-Jan-18 08:59N 10°20' W 075°31'0 0.0
2018-Jan-18 08:29N 10°20' W 075°31'0 0.0
2018-Jan-18 07:59N 10°20' W 075°31'0 0.0
2018-Jan-18 07:29N 10°20' W 075°31'0 0.0
2018-Jan-18 06:56N 10°20' W 075°31'0 0.0
2018-Jan-18 06:26N 10°20' W 075°31'0 0.0
2018-Jan-18 05:56N 10°20' W 075°31'0 0.0
2018-Jan-18 05:29N 10°20' W 075°31'0 0.0
2018-Jan-18 04:56N 10°20' W 075°31'0 0.0
2018-Jan-18 04:26N 10°20' W 075°31'0 0.0
2018-Jan-18 03:59N 10°20' W 075°31'0 0.0
2018-Jan-18 03:29N 10°20' W 075°31'0 0.0
2018-Jan-18 02:59N 10°20' W 075°31'0 0.0
2018-Jan-18 02:29N 10°20' W 075°31'0 0.0
2018-Jan-18 01:59N 10°20' W 075°31'0 0.0
2018-Jan-18 01:20N 10°20' W 075°31'0 0.0
2018-Jan-18 00:56N 10°20' W 075°31'0 0.0
2018-Jan-17 23:56N 10°20' W 075°31'  
2018-Jan-12 14:40N 10°24' W 075°32'0 0.0
2018-Jan-12 14:30N 10°24' W 075°32'2 3.3
2018-Jan-12 14:00N 10°23' W 075°32'5 9.9
2018-Jan-12 13:30N 10°19' W 075°36'1 2.6
2018-Jan-12 13:00N 10°19' W 075°37'2 4.9
2018-Jan-12 12:30N 10°19' W 075°39'3 5.7
2018-Jan-12 12:00N 10°20' W 075°42'2 4.7
2018-Jan-12 11:30N 10°21' W 075°44'77 6.9
2018-Jan-12 00:26N 11°18' W 074°52'4 8.6
2018-Jan-11 23:59N 11°19' W 074°48'4 8.7
2018-Jan-11 23:30N 11°21' W 074°44'  

Dump ship's entire track history